Dades meteomassalio
Diari Summary for Gener 10, 2018 Units:  Metric    English   Both
« Previous Day
Next Day »
Diari Semanal Mensual Anual Personalitzat
  Maxima: Minima: Mijana:
Temperatura: -17.8 °C -18.7 °C -14.3 °C
Rosada: -17.8 °C -19.3 °C -16.6 °C
Humitat: Humidity % 60 % 76 %
Velocitat del vent: 0 km/h 0 km/h 11.6 km/h
Racha vent: 0 km/h - -
Vent:- - WSW
Pressio: 0 hPa 34476.3 hPa -
Pluja: 12.7 mm    
Historical Graphs
 
 
Tabular Data for Gener 10, 2018
Time Temperature Dew Point Pressure Wind Wind Speed Wind Gust Humidity Rainfall Rate (Hourly) solar Conditions
-17.8 °C -17.8 °C 0 hPa Calm     Humidity % 0 mm SolarRadiationWatts/m^2 W/m2 Conditions
00:55 -15.9 °C -16.8 °C 34591.4 hPa Calm     90 % 0 mm 0.0 W/m2
01:09 -15.9 °C -16.7 °C 34577.8 hPa Calm     91 % 7.62 mm 0.0 W/m2 CLR
01:11 -15.9 °C -16.8 °C 34577.8 hPa Calm     90 % 7.62 mm 0.0 W/m2 CLR
01:15 -15.9 °C -16.7 °C 34577.8 hPa Calm     91 % 7.62 mm 0.0 W/m2 CLR
01:18 -15.9 °C -16.7 °C 34577.8 hPa Calm     91 % 7.62 mm 0.0 W/m2 CLR
01:36 -15.9 °C -16.7 °C 34567.7 hPa Calm     91 % 7.62 mm 0.0 W/m2 CLR
01:41 -15.9 °C -16.7 °C 34567.7 hPa Calm     91 % 7.62 mm 0.0 W/m2 CLR
01:47 -16.2 °C -17 °C 34567.7 hPa Calm     91 % 7.62 mm 0.0 W/m2 CLR
02:04 -15.9 °C -16.7 °C 34567.7 hPa Calm     91 % 0 mm 0.0 W/m2 CLR
02:07 -15.9 °C -16.7 °C 34554.1 hPa Calm     91 % 0 mm 0.0 W/m2 CLR
02:13 -15.9 °C -16.6 °C 34554.1 hPa Calm     92 % 0 mm 0.0 W/m2 CLR
02:14 -15.9 °C -16.6 °C 34554.1 hPa Calm     92 % 0 mm 0.0 W/m2 CLR
02:18 -16.2 °C -17 °C 34554.1 hPa Calm     91 % 0 mm 0.0 W/m2 CLR
02:33 -16.2 °C -16.9 °C 34554.1 hPa Calm     92 % 0 mm 0.0 W/m2 CLR
02:34 -16.2 °C -16.9 °C 34554.1 hPa Calm     92 % 0 mm 0.0 W/m2 CLR
02:38 -16.6 °C -17.2 °C 34554.1 hPa Calm     92 % 0 mm 0.0 W/m2 CLR
02:40 -16.6 °C -17.2 °C 34554.1 hPa Calm     92 % 0 mm 0.0 W/m2 CLR
02:43 -16.6 °C -17.2 °C 34544 hPa Calm     92 % 0 mm 0.0 W/m2 CLR
02:48 -16.6 °C -17.2 °C 34544 hPa Calm     92 % 0 mm 0.0 W/m2 CLR
02:50 -16.6 °C -17.2 °C 34544 hPa Calm     92 % 0 mm 0.0 W/m2 CLR
02:56 -16.8 °C -17.5 °C 34544 hPa Calm     92 % 0 mm 0.0 W/m2 CLR
03:08 -16.8 °C -17.5 °C 34544 hPa Calm     92 % 0 mm 0.0 W/m2 CLR
03:17 -17.2 °C -17.8 °C 34544 hPa Calm     92 % 0 mm 0.0 W/m2 CLR
03:19 -17.2 °C -17.8 °C 34544 hPa Calm     92 % 0 mm 0.0 W/m2 CLR
03:39 -16.8 °C -17.5 °C 34544 hPa Calm     92 % 0 mm 0.0 W/m2 CLR
03:44 -16.8 °C -17.5 °C 34544 hPa Calm     92 % 0 mm 0.0 W/m2 CLR
04:08 -17.2 °C -17.8 °C 34533.8 hPa Calm     92 % 0 mm 0.0 W/m2 CLR
04:21 -17.2 °C -17.8 °C 34533.8 hPa Calm     92 % 0 mm 0.0 W/m2 CLR
05:04 -17.4 °C -18 °C 34533.8 hPa Calm     93 % 0 mm 0.0 W/m2 CLR
05:15 -17.4 °C -18.1 °C 34533.8 hPa Calm     92 % 0 mm 0.0 W/m2 CLR
05:20 -17.4 °C -18.1 °C 34533.8 hPa Calm     92 % 0 mm 0.0 W/m2 CLR
05:27 -17.4 °C -18 °C 34520.3 hPa Calm     93 % 0 mm 0.0 W/m2 CLR
05:58 -17.8 °C -18.3 °C 34520.3 hPa Calm     93 % 0 mm 0.0 W/m2 CLR
06:08 -17.8 °C -18.3 °C 34520.3 hPa Calm     93 % 0 mm 0.0 W/m2 CLR
06:25 -17.8 °C -18.3 °C 34533.8 hPa Calm     93 % 0 mm 0.0 W/m2 CLR
07:41 -18.4 °C -18.9 °C 34544 hPa Calm     93 % 0 mm 0.0 W/m2 CLR
08:33 -18.7 °C -19.3 °C 34567.7 hPa Calm     93 % 0 mm 5.0 W/m2 OVC
09:52 -17.2 °C -17.7 °C 34567.7 hPa Calm     93 % 0 mm 88.0 W/m2 FEW
09:58 -17.2 °C -17.7 °C 34567.7 hPa Calm     93 % 0 mm 90.0 W/m2 FEW
10:39 -16.2 °C -16.7 °C 34554.1 hPa Calm     94 % 0 mm 274.0 W/m2 CLR
10:47 -16.2 °C -16.7 °C 34567.7 hPa Calm     94 % 0 mm 288.0 W/m2 CLR
11:51 -12.6 °C -14.9 °C 34544 hPa NNW 29.8 km/h 29.8 km/h 75 % 0 mm 403.0 W/m2 CLR
11:57 -12.2 °C -14.8 °C 34544 hPa NNW 41.4 km/h 41.4 km/h 73 % 0 mm 410.0 W/m2 CLR
12:11 -11.9 °C -14.8 °C 34533.8 hPa NW 38.8 km/h 38.8 km/h 70 % 0 mm 424.0 W/m2 CLR
12:48 -11.3 °C -14.7 °C 34520.3 hPa NW 26.9 km/h 26.9 km/h 66 % 0 mm 446.0 W/m2 CLR
13:40 -10.7 °C -14 °C 34496.6 hPa North 31.1 km/h 31.1 km/h 67 % 0 mm 443.0 W/m2 CLR
13:51 -10.7 °C -14.1 °C 34496.6 hPa NW 29.8 km/h 29.8 km/h 66 % 0 mm 436.0 W/m2 CLR
13:59 -10.7 °C -13.9 °C 34496.6 hPa North 38.8 km/h 38.8 km/h 68 % 0 mm 432.0 W/m2 CLR
14:27 -11 °C -14.2 °C 34486.4 hPa NNE 33.6 km/h 33.6 km/h 68 % 0 mm 121.0 W/m2 CLR
14:41 -11.3 °C -14.2 °C 34486.4 hPa North 26.9 km/h 26.9 km/h 70 % 0 mm 461.0 W/m2 CLR
14:51 -11 °C -13.9 °C 34486.4 hPa NNE 26.9 km/h 26.9 km/h 70 % 0 mm 406.0 W/m2 CLR
14:56 -11 °C -14.1 °C 34486.4 hPa NNE 32.8 km/h 32.8 km/h 69 % 0 mm 70.0 W/m2 CLR
15:21 -11.9 °C -14.7 °C 34510.1 hPa NNE 17.9 km/h 17.9 km/h 71 % 0 mm 137.0 W/m2 CLR
15:22 -11.9 °C -14.7 °C 34510.1 hPa NNE 23.8 km/h 23.8 km/h 71 % 0 mm 128.0 W/m2 CLR
15:23 -11.9 °C -14.7 °C 34510.1 hPa NNE 25.9 km/h 25.9 km/h 71 % 0 mm 128.0 W/m2 CLR
15:32 -11.9 °C -14.6 °C 34510.1 hPa North 26.9 km/h 26.9 km/h 72 % 0 mm 127.0 W/m2 CLR
15:37 -11.9 °C -14.6 °C 34496.6 hPa NNE 20.8 km/h 20.8 km/h 72 % 0 mm 144.0 W/m2 CLR
15:43 -11.9 °C -14.6 °C 34496.6 hPa NNW 3.1 km/h 3.1 km/h 72 % 0 mm 149.0 W/m2 CLR
15:51 -11.9 °C -14.6 °C 34510.1 hPa North 23.8 km/h 23.8 km/h 72 % 0 mm 139.0 W/m2 CLR
15:58 -11.6 °C -14.3 °C 34510.1 hPa NNW 20.9 km/h 20.9 km/h 72 % 0 mm 79.0 W/m2 CLR
16:08 -11.9 °C -14.7 °C 34510.1 hPa North 23.8 km/h 23.8 km/h 71 % 0 mm 109.0 W/m2 CLR
16:13 -11.9 °C -14.7 °C 34510.1 hPa NNE 20.9 km/h 20.9 km/h 71 % 0 mm 155.0 W/m2 CLR
16:25 -11.9 °C -14.7 °C 34510.1 hPa Calm     71 % 0 mm 153.0 W/m2 CLR
16:33 -11.9 °C -14.8 °C 34510.1 hPa North 5.1 km/h 5.1 km/h 70 % 0 mm 97.0 W/m2 CLR
16:40 -11.9 °C -14.9 °C 34510.1 hPa NNW 3.1 km/h 3.1 km/h 69 % 0 mm 72.0 W/m2 CLR
16:46 -11.9 °C -14.8 °C 34496.6 hPa Calm     70 % 0 mm 67.0 W/m2 FEW
16:52 -12.2 °C -15.4 °C 34496.6 hPa NW 18.2 km/h 18.2 km/h 68 % 0 mm 65.0 W/m2 SCT
16:57 -12.2 °C -15.6 °C 34496.6 hPa NW 23.8 km/h 23.8 km/h 66 % 0 mm 67.0 W/m2 FEW
17:03 -11.9 °C -15.9 °C 34496.6 hPa WNW 32.8 km/h 32.8 km/h 61 % 0 mm 58.0 W/m2 SCT
17:13 -11.6 °C -15.8 °C 34496.6 hPa NW 38.8 km/h 38.8 km/h 60 % 0 mm 26.0 W/m2 BKN
17:18 -11.9 °C -16.1 °C 34496.6 hPa NW 35.7 km/h 35.7 km/h 60 % 0 mm 21.0 W/m2 BKN
17:31 -11.9 °C -15.9 °C 34496.6 hPa WNW 32.8 km/h 32.8 km/h 61 % 0 mm 14.0 W/m2 BKN
17:36 -12.2 °C -16.1 °C 34486.4 hPa WNW 28.5 km/h 28.5 km/h 62 % 0 mm 9.0 W/m2 BKN
17:43 -12.2 °C -16.2 °C 34486.4 hPa NW 29.8 km/h 29.8 km/h 61 % 0 mm 5.0 W/m2 OVC
17:49 -12.2 °C -16.1 °C 34486.4 hPa WNW 23.8 km/h 23.8 km/h 62 % 0 mm 0.0 W/m2 OVC
17:56 -12.6 °C -16.4 °C 34486.4 hPa NW 17.9 km/h 17.9 km/h 62 % 0 mm 0.0 W/m2 OVC
18:01 -12.6 °C -16.3 °C 34486.4 hPa NW 11.9 km/h 11.9 km/h 63 % 0 mm 0.0 W/m2 CLR
18:14 -13.2 °C -16.7 °C 34486.4 hPa WNW 23.8 km/h 23.8 km/h 64 % 0 mm 0.0 W/m2 CLR
18:24 -13.4 °C -17 °C 34486.4 hPa Calm     64 % 0 mm 0.0 W/m2 CLR
18:33 -13.8 °C -17.2 °C 34476.3 hPa Calm     65 % 0 mm 0.0 W/m2 CLR
18:42 -14.1 °C -17.4 °C 34476.3 hPa NW 3.1 km/h   65 % 0 mm 0.0 W/m2 CLR
18:52 -14.1 °C -17.4 °C 34476.3 hPa Calm     65 % 0 mm 0.0 W/m2 CLR
18:58 -14.1 °C -17.4 °C 34476.3 hPa NW 6 km/h 6 km/h 65 % 0 mm 0.0 W/m2 CLR
19:04 -14.4 °C -17.7 °C 34476.3 hPa Calm     66 % 0 mm 0.0 W/m2 CLR
19:11 -14.4 °C -17.7 °C 34476.3 hPa Calm     66 % 0 mm 0.0 W/m2 CLR
19:17 -14.4 °C -17.6 °C 34476.3 hPa Calm     67 % 0 mm 0.0 W/m2 CLR
19:23 -14.1 °C -17.3 °C 34476.3 hPa WNW 9 km/h 9 km/h 67 % 0 mm 0.0 W/m2 CLR
19:34 -14.1 °C -17.3 °C 34476.3 hPa Calm     67 % 0 mm 0.0 W/m2 CLR
19:39 -14.1 °C -17.3 °C 34476.3 hPa Calm     67 % 0 mm 0.0 W/m2 CLR
19:44 -13.8 °C -16.8 °C 34476.3 hPa Calm     68 % 0 mm 0.0 W/m2 CLR
19:50 -13.8 °C -16.7 °C 34476.3 hPa Calm     69 % 0 mm 0.0 W/m2 CLR
19:56 -13.8 °C -16.6 °C 34476.3 hPa Calm     70 % 0 mm 0.0 W/m2 CLR
20:04 -13.8 °C -16.6 °C 34486.4 hPa Calm     70 % 0 mm 0.0 W/m2 CLR
20:10 -13.8 °C -16.5 °C 34486.4 hPa Calm     71 % 0 mm 0.0 W/m2 CLR
20:15 -14.1 °C -16.7 °C 34486.4 hPa Calm     72 % 0 mm 0.0 W/m2 CLR
20:22 -14.1 °C -16.7 °C 34486.4 hPa Calm     72 % 0 mm 0.0 W/m2 CLR
20:49 -14.7 °C -17.4 °C 34486.4 hPa Calm     71 % 0 mm 0.0 W/m2 CLR
21:01 -14.7 °C -17.4 °C 34476.3 hPa WNW 9 km/h 9 km/h 71 % 0 mm 0.0 W/m2 CLR
21:13 -15 °C -17.7 °C 34476.3 hPa WNW 23.8 km/h 23.8 km/h 71 % 0 mm 0.0 W/m2 CLR
21:27 -15.3 °C -18.1 °C 34476.3 hPa WNW 7.7 km/h 7.7 km/h 70 % 0 mm 0.0 W/m2 CLR
22:03 -15.9 °C -18.8 °C 34496.6 hPa WNW 26.9 km/h 26.9 km/h 69 % 0 mm 0.0 W/m2 CLR
22:11 -15.9 °C -18.9 °C 34496.6 hPa NW 29.8 km/h 29.8 km/h 68 % 0 mm 0.0 W/m2 CLR
22:16 -15.9 °C -19 °C 34496.6 hPa NW 26.9 km/h 26.9 km/h 67 % 0 mm 0.0 W/m2 CLR
22:30 -13.2 °C -16.6 °C 34496.6 hPa NW 32.8 km/h 32.8 km/h 65 % 0 mm 0.0 W/m2 CLR
22:52 -12.8 °C -16.3 °C 34486.4 hPa NW 32.8 km/h 32.8 km/h 65 % 0 mm 0.0 W/m2 CLR
23:05 -13.2 °C -16.6 °C 34496.6 hPa NNW 49.2 km/h 49.2 km/h 65 % 0 mm 0.0 W/m2 CLR
23:45 -13.2 °C -16.6 °C 34510.1 hPa NW 50.7 km/h 50.7 km/h 65 % 0 mm 0.0 W/m2 CLR
23:53 -12.8 °C -16.3 °C 34510.1 hPa NW 68.6 km/h 68.6 km/h 65 % 0 mm 0.0 W/m2 CLR
Lo Temps de Massalio
Compliments of Weather Underground - 512 kb